Hlavní strana
METAR-TAF:

METAR-TAF

Letiště :

Letiště Vitebsk

Vitebsk, Bělorusko

zeměpisná šířka: 55-10N, zeměpisná délka: 030-13E, výška: 176 m

Aktuální stav počasí

Zpráva byla vytvořena před 29 minutami, v 13:29 UTC
Severní vítr 8 kt
Teplota 13°C
Vlhkost vzduchu 82%
Tlak 1018 hPa
Viditelnost: 4700 m
Oblačno až skoro zataženo ve výšce 800 ft
kouřmo

METAR: UMII 191329Z 36004MPS 4700 BR BKN008 13/10 Q1018 R23/D TEMPO 2000 BKN005

Čas: 16:58 (13:58 UTC)

Předpověď počasí

Zpráva byla vytvořena před 2 hodinami a 53 minutami, v 11:05 UTC
Předpověď platná od 19 v 12 UTC do 19 v 21 UTC
Severní vítr 6 kt
Viditelnost: 6000 m
Polojasno ve výšce 1500 ft
Dočasný
od 19 v 12 UTC do 19 v 21 UTC
Viditelnost: 2000 m
Oblačno až skoro zataženo ve výšce 500 ft
kouřmo

TAF: UMII 191105Z 1912/1921 35003MPS 6000 SCT015 TEMPO 1912/1921 2000 BR BKN005

Stav a předpovědi počasí z více než 4 000 letišť (zprávy METAR a TAF).

Červené a žluté tečky na mapě představují dostupné meteorologické stanice.

Když kurzor umístíte na tečku, zobrazí se název stanice.

Pak kliknutím zobrazíte stav a předpověď počasí.

Chcete-li změnit mapu, kliknutím na zelené tlačítko se znaménkem +mapu přiblížíte, kliknutím na zelené tlačítko se znaménkem – mapu oddálíte a kliknutím na zelené šipky přejdete na sousední mapy.


METAR-TAF: